createdAt,value
2022-08-29T00:00:24.639Z,54.43
2022-08-29T00:02:27.077Z,54.25
2022-08-29T00:04:29.272Z,54.46
2022-08-29T00:06:33.655Z,54.27
2022-08-29T00:08:35.657Z,54.37
2022-08-29T00:10:39.072Z,54.66
2022-08-29T00:12:41.347Z,54.83
2022-08-29T00:14:43.693Z,54.79
2022-08-29T00:16:45.893Z,54.78
2022-08-29T00:18:47.919Z,54.86
2022-08-29T00:20:49.961Z,54.90
2022-08-29T00:22:51.978Z,55.11
2022-08-29T00:25:04.963Z,55.21
2022-08-29T00:27:06.910Z,55.25
2022-08-29T00:29:08.912Z,55.17
2022-08-29T00:31:11.405Z,55.38
2022-08-29T00:33:14.829Z,55.35
2022-08-29T00:35:24.151Z,55.40
2022-08-29T00:37:26.107Z,55.39
2022-08-29T00:39:35.528Z,55.41
2022-08-29T00:41:38.528Z,55.57
2022-08-29T00:43:40.717Z,55.57
2022-08-29T00:45:57.418Z,55.78
2022-08-29T00:48:02.705Z,55.52
2022-08-29T00:50:09.305Z,55.73
2022-08-29T00:52:20.546Z,55.76
2022-08-29T00:54:23.824Z,55.73
2022-08-29T00:56:26.617Z,55.68
2022-08-29T00:58:51.408Z,55.85
2022-08-29T01:00:54.014Z,55.80
2022-08-29T01:02:56.242Z,56.07
2022-08-29T01:05:00.049Z,56.12
2022-08-29T01:07:02.254Z,56.16
2022-08-29T01:09:06.542Z,56.23
2022-08-29T01:11:28.620Z,56.61
2022-08-29T01:13:36.489Z,56.33
2022-08-29T01:15:40.694Z,56.25
2022-08-29T01:17:46.154Z,56.32
2022-08-29T01:20:16.135Z,56.03
2022-08-29T01:22:40.026Z,56.22
2022-08-29T01:24:50.804Z,56.55
2022-08-29T01:26:53.417Z,56.31
2022-08-29T01:28:56.588Z,56.44
2022-08-29T01:31:06.269Z,56.60
2022-08-29T01:33:08.489Z,56.80
2022-08-29T01:35:12.934Z,56.64
2022-08-29T01:37:16.964Z,56.99
2022-08-29T01:39:33.093Z,56.75
2022-08-29T01:41:35.635Z,57.05
2022-08-29T01:43:44.341Z,57.00
2022-08-29T01:45:47.272Z,56.94
2022-08-29T01:47:49.169Z,56.99
2022-08-29T01:49:51.670Z,57.00
2022-08-29T01:51:53.621Z,57.12
2022-08-29T01:53:55.948Z,57.10
2022-08-29T01:55:57.991Z,57.16
2022-08-29T01:57:59.934Z,57.42
2022-08-29T02:00:02.710Z,57.38
2022-08-29T02:02:29.711Z,57.45
2022-08-29T02:04:32.740Z,57.30
2022-08-29T02:06:36.363Z,57.49
2022-08-29T02:08:41.753Z,57.51
2022-08-29T02:10:43.941Z,57.51
2022-08-29T02:12:46.138Z,57.42
2022-08-29T02:14:50.952Z,57.52
2022-08-29T02:16:53.014Z,57.47
2022-08-29T02:18:56.108Z,57.50
2022-08-29T02:20:58.490Z,57.52
2022-08-29T02:23:00.517Z,57.65
2022-08-29T02:25:03.427Z,57.45
2022-08-29T02:27:05.471Z,57.72
2022-08-29T02:29:07.423Z,57.61
2022-08-29T02:31:09.837Z,57.44
2022-08-29T02:33:13.950Z,57.49
2022-08-29T02:35:16.589Z,57.39
2022-08-29T02:37:18.818Z,57.44
2022-08-29T02:39:31.316Z,57.65
2022-08-29T02:41:33.478Z,57.50
2022-08-29T02:43:35.845Z,57.38
2022-08-29T02:45:40.336Z,57.81
2022-08-29T02:47:42.787Z,57.34
2022-08-29T02:49:45.631Z,57.51
2022-08-29T02:51:47.823Z,57.46
2022-08-29T02:53:50.976Z,57.74
2022-08-29T02:55:53.797Z,57.68
2022-08-29T02:57:55.689Z,57.58
2022-08-29T02:59:57.607Z,57.58
2022-08-29T03:01:59.542Z,57.63
2022-08-29T03:04:02.415Z,57.72
2022-08-29T03:06:04.557Z,57.97
2022-08-29T03:08:09.309Z,57.77
2022-08-29T03:10:11.506Z,57.72
2022-08-29T03:12:13.460Z,57.99
2022-08-29T03:14:15.969Z,57.74
2022-08-29T03:16:18.481Z,58.04
2022-08-29T03:18:20.505Z,57.96
2022-08-29T03:20:24.852Z,58.12
2022-08-29T03:22:28.179Z,58.10
2022-08-29T03:24:30.040Z,58.01
2022-08-29T03:26:32.037Z,58.08
2022-08-29T03:28:34.005Z,58.30
2022-08-29T03:30:36.013Z,58.31
2022-08-29T03:32:38.894Z,58.12
2022-08-29T03:34:41.368Z,58.27
2022-08-29T03:36:43.277Z,58.04
2022-08-29T03:38:46.751Z,58.18
2022-08-29T03:40:48.528Z,58.24
2022-08-29T03:42:50.732Z,58.19
2022-08-29T03:44:52.718Z,58.08
2022-08-29T03:46:54.668Z,58.07
2022-08-29T03:48:56.504Z,57.99
2022-08-29T03:51:08.276Z,58.19
2022-08-29T03:53:10.132Z,58.26
2022-08-29T03:55:13.073Z,58.26
2022-08-29T03:57:14.938Z,58.52
2022-08-29T03:59:18.069Z,58.46
2022-08-29T04:01:22.757Z,58.52
2022-08-29T04:03:31.074Z,58.66
2022-08-29T04:05:33.450Z,58.47
2022-08-29T04:07:40.201Z,58.22
2022-08-29T04:09:42.418Z,58.57
2022-08-29T04:11:44.326Z,58.74
2022-08-29T04:13:47.978Z,58.56
2022-08-29T04:15:50.447Z,58.81
2022-08-29T04:17:55.433Z,58.97
2022-08-29T04:19:57.824Z,58.95
2022-08-29T04:22:00.313Z,59.04
2022-08-29T04:24:03.262Z,59.16
2022-08-29T04:26:27.085Z,59.48
2022-08-29T04:28:27.431Z,59.24
2022-08-29T04:30:32.457Z,59.21
2022-08-29T04:32:34.515Z,59.49
2022-08-29T04:34:37.560Z,59.65
2022-08-29T04:36:43.873Z,59.75
2022-08-29T04:38:45.816Z,59.76
2022-08-29T04:40:48.177Z,59.71
2022-08-29T04:42:50.361Z,59.92
2022-08-29T04:44:52.670Z,59.99
2022-08-29T04:46:54.620Z,59.98
2022-08-29T04:49:00.552Z,60.18
2022-08-29T04:51:09.709Z,59.95
2022-08-29T04:53:12.785Z,59.83
2022-08-29T04:55:21.334Z,59.90
2022-08-29T04:57:24.895Z,60.31
2022-08-29T04:59:26.758Z,60.48
2022-08-29T05:01:30.379Z,60.44
2022-08-29T05:03:32.929Z,60.25
2022-08-29T05:05:34.792Z,60.19
2022-08-29T05:07:38.198Z,60.31
2022-08-29T05:09:40.361Z,60.32
2022-08-29T05:11:42.970Z,60.39
2022-08-29T05:13:45.279Z,60.45
2022-08-29T05:15:47.334Z,60.69
2022-08-29T05:17:49.371Z,60.62
2022-08-29T05:19:51.211Z,60.63
2022-08-29T05:21:58.049Z,60.83
2022-08-29T05:24:00.480Z,61.04
2022-08-29T05:26:04.623Z,61.00
2022-08-29T05:28:06.739Z,61.46
2022-08-29T05:30:09.029Z,61.05
2022-08-29T05:32:12.542Z,61.18
2022-08-29T05:34:34.830Z,61.15
2022-08-29T05:36:36.337Z,61.43
2022-08-29T05:38:38.078Z,61.22
2022-08-29T05:40:39.955Z,61.38
2022-08-29T05:42:43.014Z,61.47
2022-08-29T05:44:44.780Z,61.46
2022-08-29T05:46:46.955Z,61.37
2022-08-29T05:48:50.498Z,61.80
2022-08-29T05:50:52.152Z,61.61
2022-08-29T05:52:53.843Z,61.55
2022-08-29T05:54:55.637Z,61.53
2022-08-29T05:56:57.398Z,61.58
2022-08-29T05:58:59.175Z,61.53
2022-08-29T06:01:04.954Z,61.61
2022-08-29T06:03:07.007Z,61.49
2022-08-29T06:05:09.137Z,61.45
2022-08-29T06:07:13.114Z,61.43
2022-08-29T06:09:14.821Z,61.39
2022-08-29T06:11:22.593Z,61.30
2022-08-29T06:13:24.234Z,61.11
2022-08-29T06:15:28.619Z,61.27
2022-08-29T06:17:30.402Z,61.12
2022-08-29T06:19:34.947Z,61.16
2022-08-29T06:21:36.638Z,60.90
2022-08-29T06:23:39.879Z,61.35
2022-08-29T06:25:41.533Z,60.91
2022-08-29T06:27:43.230Z,60.88
2022-08-29T06:29:44.982Z,60.83
2022-08-29T06:31:46.652Z,60.51
2022-08-29T06:33:52.024Z,60.49
2022-08-29T06:35:53.702Z,60.63
2022-08-29T06:37:55.533Z,60.54
2022-08-29T06:39:57.359Z,60.32
2022-08-29T06:41:59.085Z,60.37
2022-08-29T06:44:01.314Z,60.08
2022-08-29T06:46:03.630Z,60.07
2022-08-29T06:48:05.395Z,60.51
2022-08-29T06:50:10.474Z,60.33
2022-08-29T06:52:13.155Z,60.24
2022-08-29T06:54:17.145Z,60.34
2022-08-29T06:56:20.493Z,60.07
2022-08-29T06:58:22.329Z,59.97
2022-08-29T07:00:24.011Z,59.77
2022-08-29T07:02:25.687Z,59.69
2022-08-29T07:04:27.527Z,59.58
2022-08-29T07:06:29.859Z,59.54
2022-08-29T07:08:32.562Z,59.36
2022-08-29T07:10:34.860Z,59.20
2022-08-29T07:12:36.514Z,59.17
2022-08-29T07:14:38.283Z,59.01
2022-08-29T07:16:41.081Z,58.98
2022-08-29T07:18:44.355Z,58.77
2022-08-29T07:20:46.062Z,58.96
2022-08-29T07:22:51.367Z,58.96
2022-08-29T07:24:54.157Z,58.60
2022-08-29T07:26:55.928Z,58.56
2022-08-29T07:29:03.099Z,58.62
2022-08-29T07:31:07.474Z,58.39
2022-08-29T07:33:09.593Z,58.48
2022-08-29T07:35:19.836Z,58.20
2022-08-29T07:37:30.885Z,58.34
2022-08-29T07:39:33.343Z,57.88
2022-08-29T07:41:35.105Z,58.40
2022-08-29T07:43:37.979Z,58.12
2022-08-29T07:45:40.299Z,58.01
2022-08-29T07:47:42.000Z,57.83
2022-08-29T07:49:43.687Z,57.56
2022-08-29T07:51:45.473Z,57.51
2022-08-29T07:53:47.288Z,57.52
2022-08-29T07:55:49.026Z,57.33
2022-08-29T07:57:52.616Z,57.51
2022-08-29T07:59:54.345Z,57.49
2022-08-29T08:01:56.105Z,57.42
2022-08-29T08:03:58.538Z,57.71
2022-08-29T08:06:00.699Z,56.85
2022-08-29T08:08:15.032Z,56.65
2022-08-29T08:10:19.636Z,56.80
2022-08-29T08:12:23.080Z,56.14
2022-08-29T08:14:34.568Z,55.77
2022-08-29T08:16:37.365Z,55.49
2022-08-29T08:18:40.467Z,55.38
2022-08-29T08:20:48.398Z,54.76
2022-08-29T08:22:50.276Z,54.36
2022-08-29T08:24:53.064Z,54.42
2022-08-29T08:26:54.718Z,54.08
2022-08-29T08:28:56.479Z,53.65
2022-08-29T08:31:07.901Z,53.92
2022-08-29T08:33:10.112Z,52.93
2022-08-29T08:35:12.847Z,52.37
2022-08-29T08:37:15.985Z,52.61
2022-08-29T08:39:29.463Z,52.30
2022-08-29T08:41:34.014Z,52.18
2022-08-29T08:43:57.772Z,51.87
2022-08-29T08:45:59.553Z,51.76
2022-08-29T08:48:34.600Z,52.24
2022-08-29T08:50:54.949Z,51.44
2022-08-29T08:53:10.490Z,50.99
2022-08-29T08:55:28.366Z,50.93
2022-08-29T08:57:40.002Z,50.65
2022-08-29T08:59:56.646Z,50.57
2022-08-29T09:02:07.432Z,50.30
2022-08-29T09:04:36.484Z,50.08
2022-08-29T09:06:59.922Z,49.46
2022-08-29T09:09:15.952Z,48.98
2022-08-29T09:11:28.897Z,49.14
2022-08-29T09:13:53.247Z,49.10
2022-08-29T09:15:58.355Z,48.72
2022-08-29T09:18:17.123Z,48.36
2022-08-29T09:20:26.271Z,48.23
2022-08-29T09:22:33.017Z,48.07
2022-08-29T09:24:46.745Z,48.18
2022-08-29T09:26:49.740Z,48.15
2022-08-29T09:28:51.486Z,48.44
2022-08-29T09:31:15.386Z,48.39
2022-08-29T09:33:17.555Z,47.64
2022-08-29T09:35:24.559Z,47.65
2022-08-29T09:37:32.993Z,47.63
2022-08-29T09:39:36.328Z,47.50
2022-08-29T09:41:38.750Z,47.36
2022-08-29T09:43:40.379Z,47.08
2022-08-29T09:46:02.898Z,46.75
2022-08-29T09:48:15.224Z,46.74
2022-08-29T09:50:27.852Z,46.49
2022-08-29T09:52:29.721Z,46.65
2022-08-29T09:54:32.027Z,45.26
2022-08-29T09:56:37.417Z,45.17
2022-08-29T09:58:41.779Z,44.95
2022-08-29T10:01:14.058Z,44.80
2022-08-29T10:03:29.999Z,44.73
2022-08-29T10:05:46.983Z,44.27
2022-08-29T10:07:51.978Z,43.38
2022-08-29T10:10:19.983Z,43.42
2022-08-29T10:12:31.928Z,43.02
2022-08-29T10:14:46.757Z,43.45
2022-08-29T10:17:20.390Z,42.11
2022-08-29T10:19:33.050Z,42.66
2022-08-29T10:22:05.228Z,42.48
2022-08-29T10:24:17.340Z,42.08
2022-08-29T10:26:53.566Z,42.22
2022-08-29T10:29:11.136Z,41.79
2022-08-29T10:31:33.806Z,42.00
2022-08-29T10:34:14.548Z,41.61
2022-08-29T10:36:22.717Z,41.13
2022-08-29T10:38:33.461Z,41.36
2022-08-29T10:40:47.628Z,42.08
2022-08-29T10:42:51.472Z,41.42
2022-08-29T10:45:20.724Z,41.12
2022-08-29T10:47:47.659Z,40.94
2022-08-29T10:49:56.849Z,40.54
2022-08-29T10:52:23.708Z,40.62
2022-08-29T10:54:56.311Z,40.86
2022-08-29T10:57:00.150Z,40.45
2022-08-29T10:59:19.939Z,40.53
2022-08-29T11:01:24.272Z,40.62
2022-08-29T11:03:25.928Z,40.62
2022-08-29T11:05:40.701Z,39.97
2022-08-29T11:07:50.690Z,39.91
2022-08-29T11:09:57.356Z,39.92
2022-08-29T11:12:10.672Z,39.99
2022-08-29T11:15:00.966Z,39.80
2022-08-29T11:17:07.296Z,40.25
2022-08-29T11:19:47.041Z,39.61
2022-08-29T11:21:51.573Z,39.25
2022-08-29T11:23:58.375Z,39.45
2022-08-29T11:26:27.241Z,39.15
2022-08-29T11:31:22.109Z,39.16
2022-08-29T11:33:44.904Z,38.96
2022-08-29T11:35:49.408Z,39.59
2022-08-29T11:38:25.562Z,39.04
2022-08-29T11:42:51.123Z,38.82
2022-08-29T11:44:55.813Z,38.92
2022-08-29T11:46:58.953Z,37.71
2022-08-29T11:49:24.744Z,38.29
2022-08-29T11:51:38.071Z,37.19
2022-08-29T11:53:39.902Z,36.61
2022-08-29T11:56:05.521Z,36.81
2022-08-29T11:58:27.145Z,37.00
2022-08-29T12:00:39.733Z,36.98
2022-08-29T12:02:48.317Z,37.15
2022-08-29T12:05:04.592Z,37.11
2022-08-29T12:07:08.249Z,36.90
2022-08-29T12:09:13.813Z,37.25
2022-08-29T12:11:15.941Z,37.52
2022-08-29T12:13:48.802Z,37.31
2022-08-29T12:15:54.865Z,37.03
2022-08-29T12:18:22.643Z,36.82
2022-08-29T12:20:30.320Z,36.30
2022-08-29T12:24:55.187Z,36.03
2022-08-29T12:26:59.922Z,35.85
2022-08-29T12:29:02.248Z,36.06
2022-08-29T12:31:17.138Z,36.14
2022-08-29T12:33:41.191Z,36.48
2022-08-29T12:36:21.049Z,36.51
2022-08-29T12:38:50.491Z,36.50
2022-08-29T12:41:13.006Z,36.22
2022-08-29T12:43:44.704Z,36.23
2022-08-29T12:45:47.611Z,35.85
2022-08-29T12:47:54.923Z,35.75
2022-08-29T12:50:01.858Z,34.74
2022-08-29T12:52:08.283Z,35.10
2022-08-29T12:54:13.398Z,35.34
2022-08-29T12:56:22.238Z,35.44
2022-08-29T12:58:35.656Z,35.69
2022-08-29T13:00:38.100Z,35.11
2022-08-29T13:02:41.188Z,35.12
2022-08-29T13:04:43.995Z,35.67
2022-08-29T13:06:58.839Z,35.64
2022-08-29T13:09:01.907Z,35.78
2022-08-29T13:11:14.853Z,36.22
2022-08-29T13:13:21.006Z,36.13
2022-08-29T13:15:32.983Z,36.30
2022-08-29T13:17:39.843Z,36.46
2022-08-29T13:19:42.191Z,36.51
2022-08-29T13:21:43.993Z,37.52
2022-08-29T13:23:47.277Z,36.44
2022-08-29T13:25:54.417Z,35.70
2022-08-29T13:28:01.622Z,35.60
2022-08-29T13:30:04.802Z,35.46
2022-08-29T13:32:24.197Z,36.41
2022-08-29T13:34:26.006Z,35.32
2022-08-29T13:36:28.275Z,35.35
2022-08-29T13:38:30.205Z,35.00
2022-08-29T13:40:43.870Z,35.36
2022-08-29T13:42:45.698Z,35.16
2022-08-29T13:44:47.524Z,35.49
2022-08-29T13:46:52.345Z,35.56
2022-08-29T13:49:02.918Z,35.95
2022-08-29T13:51:10.243Z,36.23
2022-08-29T13:53:11.999Z,36.57
2022-08-29T13:55:13.841Z,36.87
2022-08-29T13:57:23.543Z,36.89
2022-08-29T13:59:27.639Z,37.15
2022-08-29T14:01:30.185Z,37.24
2022-08-29T14:03:33.210Z,36.96
2022-08-29T14:05:35.747Z,37.60
2022-08-29T14:07:38.451Z,37.74
2022-08-29T14:09:43.123Z,37.80
2022-08-29T14:11:44.862Z,37.92
2022-08-29T14:13:47.475Z,38.10
2022-08-29T14:15:49.352Z,38.08
2022-08-29T14:17:51.128Z,38.19
2022-08-29T14:19:53.334Z,37.99
2022-08-29T14:21:55.515Z,37.78
2022-08-29T14:23:57.253Z,37.88
2022-08-29T14:25:59.805Z,37.91
2022-08-29T14:28:01.573Z,37.88
2022-08-29T14:30:06.081Z,38.49
2022-08-29T14:32:07.806Z,37.72
2022-08-29T14:34:09.519Z,37.28
2022-08-29T14:36:12.578Z,37.47
2022-08-29T14:38:14.552Z,37.97
2022-08-29T14:40:16.673Z,37.54
2022-08-29T14:42:23.684Z,37.61
2022-08-29T14:44:25.410Z,37.83
2022-08-29T14:46:28.871Z,37.67
2022-08-29T14:48:30.745Z,37.58
2022-08-29T14:50:33.194Z,37.95
2022-08-29T14:52:35.004Z,37.70
2022-08-29T14:54:36.668Z,37.71
2022-08-29T14:56:55.005Z,37.85
2022-08-29T14:58:58.081Z,37.95
2022-08-29T15:01:09.850Z,38.21
2022-08-29T15:03:11.734Z,38.33
2022-08-29T15:05:13.610Z,38.20
2022-08-29T15:07:16.054Z,38.24
2022-08-29T15:09:17.806Z,38.29
2022-08-29T15:11:19.577Z,38.49
2022-08-29T15:13:21.305Z,38.63
2022-08-29T15:15:29.635Z,38.72
2022-08-29T15:17:31.563Z,39.00
2022-08-29T15:21:55.430Z,37.53
2022-08-29T15:23:58.367Z,37.27
2022-08-29T15:26:00.878Z,37.12
2022-08-29T15:28:03.362Z,37.30
2022-08-29T15:30:06.068Z,37.36
2022-08-29T15:32:08.622Z,37.53
2022-08-29T15:34:10.266Z,37.46
2022-08-29T15:36:12.021Z,37.64
2022-08-29T15:38:13.951Z,37.34
2022-08-29T15:40:16.377Z,37.32
2022-08-29T15:42:18.585Z,37.64
2022-08-29T15:44:24.086Z,37.28
2022-08-29T15:46:27.275Z,37.39
2022-08-29T15:48:33.712Z,37.50
2022-08-29T15:50:35.909Z,37.43
2022-08-29T15:52:38.480Z,37.91
2022-08-29T15:54:40.452Z,37.60
2022-08-29T15:56:42.734Z,37.49
2022-08-29T15:58:44.427Z,37.91
2022-08-29T16:00:47.235Z,37.98
2022-08-29T16:02:48.955Z,37.65
2022-08-29T16:04:54.806Z,37.72
2022-08-29T16:06:59.073Z,37.00
2022-08-29T16:09:01.687Z,37.00
2022-08-29T16:11:07.691Z,37.54
2022-08-29T16:13:09.498Z,37.98
2022-08-29T16:15:12.233Z,37.56
2022-08-29T16:17:14.174Z,37.84
2022-08-29T16:19:17.349Z,38.19
2022-08-29T16:21:21.442Z,38.06
2022-08-29T16:23:23.171Z,38.91
2022-08-29T16:25:25.526Z,38.14
2022-08-29T16:27:27.497Z,38.32
2022-08-29T16:29:29.393Z,37.87
2022-08-29T16:31:31.273Z,37.96
2022-08-29T16:33:33.154Z,37.91
2022-08-29T16:35:34.893Z,38.59
2022-08-29T16:37:37.561Z,38.05
2022-08-29T16:39:39.246Z,38.40
2022-08-29T16:41:41.268Z,38.31
2022-08-29T16:43:43.795Z,38.54
2022-08-29T16:45:45.753Z,38.78
2022-08-29T16:47:47.497Z,38.93
2022-08-29T16:49:49.167Z,39.06
2022-08-29T16:51:52.548Z,38.71
2022-08-29T16:53:54.640Z,38.69
2022-08-29T16:55:56.330Z,39.23
2022-08-29T16:58:17.684Z,39.29
2022-08-29T17:00:19.458Z,39.57
2022-08-29T17:02:25.755Z,39.33
2022-08-29T17:04:28.236Z,39.72
2022-08-29T17:06:31.769Z,39.20
2022-08-29T17:08:33.494Z,39.89
2022-08-29T17:10:35.127Z,40.05
2022-08-29T17:12:36.825Z,39.64
2022-08-29T17:14:38.528Z,39.58
2022-08-29T17:16:42.671Z,39.69
2022-08-29T17:18:44.519Z,39.65
2022-08-29T17:20:48.398Z,39.84
2022-08-29T17:22:50.429Z,40.19
2022-08-29T17:24:52.132Z,39.53
2022-08-29T17:26:53.938Z,39.74
2022-08-29T17:28:56.024Z,39.44
2022-08-29T17:31:07.088Z,39.85
2022-08-29T17:33:10.814Z,39.73
2022-08-29T17:35:12.606Z,39.91
2022-08-29T17:37:14.284Z,39.67
2022-08-29T17:39:15.942Z,40.18
2022-08-29T17:41:22.146Z,39.81
2022-08-29T17:43:26.066Z,40.41
2022-08-29T17:45:28.180Z,39.76
2022-08-29T17:47:29.972Z,40.11
2022-08-29T17:49:32.465Z,40.12
2022-08-29T17:51:34.857Z,40.41
2022-08-29T17:53:36.598Z,40.65
2022-08-29T17:55:38.390Z,40.45
2022-08-29T17:57:40.074Z,40.53
2022-08-29T17:59:42.633Z,40.53
2022-08-29T18:01:45.031Z,40.87
2022-08-29T18:03:47.066Z,41.14
2022-08-29T18:05:48.765Z,40.91
2022-08-29T18:07:51.871Z,41.31
2022-08-29T18:09:53.605Z,41.38
2022-08-29T18:11:58.355Z,41.50
2022-08-29T18:14:01.230Z,41.61
2022-08-29T18:16:03.111Z,41.92
2022-08-29T18:18:05.563Z,42.26
2022-08-29T18:20:10.217Z,42.21
2022-08-29T18:22:12.182Z,42.24
2022-08-29T18:24:15.886Z,42.64
2022-08-29T18:26:17.934Z,42.72
2022-08-29T18:28:20.098Z,42.99
2022-08-29T18:30:22.349Z,43.16
2022-08-29T18:32:25.778Z,43.38
2022-08-29T18:34:27.802Z,43.62
2022-08-29T18:36:31.744Z,43.44
2022-08-29T18:38:34.981Z,43.62
2022-08-29T18:40:39.566Z,43.79
2022-08-29T18:42:42.004Z,43.95
2022-08-29T18:44:44.058Z,43.55
2022-08-29T18:46:47.845Z,43.59
2022-08-29T18:48:52.062Z,43.90
2022-08-29T18:50:54.160Z,43.68
2022-08-29T18:52:57.777Z,43.78
2022-08-29T18:54:59.715Z,43.80
2022-08-29T18:57:01.773Z,43.91
2022-08-29T18:59:05.710Z,43.95
2022-08-29T19:01:26.947Z,43.76
2022-08-29T19:03:30.259Z,43.75
2022-08-29T19:05:34.786Z,43.99
2022-08-29T19:07:36.896Z,43.81
2022-08-29T19:09:39.024Z,43.85
2022-08-29T19:11:40.970Z,44.14
2022-08-29T19:13:43.597Z,44.11
2022-08-29T19:15:47.571Z,44.31
2022-08-29T19:17:49.974Z,44.00
2022-08-29T19:20:10.625Z,44.00
2022-08-29T19:22:14.294Z,44.30
2022-08-29T19:24:16.281Z,44.98
2022-08-29T19:26:22.921Z,44.56
2022-08-29T19:28:25.104Z,44.40
2022-08-29T19:30:27.521Z,44.66
2022-08-29T19:32:29.792Z,44.49
2022-08-29T19:34:31.661Z,44.74
2022-08-29T19:36:34.444Z,44.48
2022-08-29T19:38:37.723Z,44.70
2022-08-29T19:40:43.946Z,44.74
2022-08-29T19:42:47.222Z,44.63
2022-08-29T19:44:49.430Z,44.88
2022-08-29T19:46:52.115Z,44.72
2022-08-29T19:48:55.061Z,44.90
2022-08-29T19:51:08.749Z,44.88
2022-08-29T19:53:13.620Z,44.80
2022-08-29T19:55:18.052Z,45.36
2022-08-29T19:57:20.396Z,45.05
2022-08-29T19:59:22.437Z,45.19
2022-08-29T20:01:24.520Z,45.23
2022-08-29T20:03:27.872Z,45.23
2022-08-29T20:05:29.821Z,45.42
2022-08-29T20:07:32.525Z,45.42
2022-08-29T20:09:36.314Z,45.28
2022-08-29T20:11:43.454Z,45.36
2022-08-29T20:13:50.568Z,45.70
2022-08-29T20:15:53.673Z,45.56
2022-08-29T20:17:57.727Z,45.47
2022-08-29T20:19:59.524Z,45.58
2022-08-29T20:22:01.200Z,45.81
2022-08-29T20:24:04.620Z,45.60
2022-08-29T20:26:07.065Z,45.62
2022-08-29T20:28:15.457Z,45.76
2022-08-29T20:30:22.889Z,45.70
2022-08-29T20:32:25.963Z,45.64
2022-08-29T20:34:29.829Z,45.66
2022-08-29T20:36:50.372Z,45.95
2022-08-29T20:38:51.997Z,45.71
2022-08-29T20:40:53.767Z,45.68
2022-08-29T20:42:55.623Z,46.04
2022-08-29T20:44:58.046Z,46.37
2022-08-29T20:46:59.949Z,46.24
2022-08-29T20:49:01.816Z,46.22
2022-08-29T20:51:12.806Z,46.35
2022-08-29T20:53:31.650Z,46.54
2022-08-29T20:55:34.822Z,46.62
2022-08-29T20:57:39.190Z,46.43
2022-08-29T20:59:40.969Z,46.61
2022-08-29T21:01:43.620Z,46.55
2022-08-29T21:04:03.623Z,46.82
2022-08-29T21:06:05.748Z,46.69
2022-08-29T21:08:13.243Z,46.87
2022-08-29T21:10:15.061Z,46.60
2022-08-29T21:12:18.010Z,46.60
2022-08-29T21:14:22.585Z,46.60
2022-08-29T21:16:24.423Z,46.76
2022-08-29T21:18:26.317Z,46.79
2022-08-29T21:20:30.019Z,46.75
2022-08-29T21:22:31.746Z,46.84
2022-08-29T21:24:34.081Z,46.87
2022-08-29T21:26:37.033Z,47.19
2022-08-29T21:28:39.574Z,46.92
2022-08-29T21:30:45.453Z,47.46
2022-08-29T21:32:48.390Z,47.73
2022-08-29T21:34:50.071Z,47.51
2022-08-29T21:36:51.922Z,47.71
2022-08-29T21:39:00.846Z,47.76
2022-08-29T21:41:14.175Z,47.95
2022-08-29T21:43:16.141Z,48.27
2022-08-29T21:45:17.983Z,48.39
2022-08-29T21:47:19.678Z,48.30
2022-08-29T21:49:21.955Z,48.53
2022-08-29T21:51:24.367Z,48.56
2022-08-29T21:53:27.586Z,48.55
2022-08-29T21:55:29.743Z,48.46
2022-08-29T21:57:50.192Z,48.75
2022-08-29T21:59:51.900Z,48.85
2022-08-29T22:01:55.113Z,48.90
2022-08-29T22:03:59.350Z,48.80
2022-08-29T22:06:02.445Z,48.76
2022-08-29T22:08:05.117Z,49.02
2022-08-29T22:10:18.886Z,49.30
2022-08-29T22:12:20.607Z,49.31
2022-08-29T22:14:42.672Z,49.50
2022-08-29T22:16:44.527Z,49.58
2022-08-29T22:18:46.606Z,49.54
2022-08-29T22:20:48.548Z,49.74
2022-08-29T22:22:54.771Z,49.73
2022-08-29T22:24:56.416Z,49.78
2022-08-29T22:26:58.459Z,49.73
2022-08-29T22:29:00.396Z,49.97
2022-08-29T22:31:10.388Z,50.49
2022-08-29T22:33:12.890Z,50.38
2022-08-29T22:35:18.436Z,50.48
2022-08-29T22:37:38.695Z,50.31
2022-08-29T22:39:41.289Z,50.46
2022-08-29T22:41:47.541Z,50.47
2022-08-29T22:44:03.016Z,50.61
2022-08-29T22:46:16.505Z,50.48
2022-08-29T22:48:19.618Z,50.97
2022-08-29T22:50:24.325Z,51.19
2022-08-29T22:52:26.358Z,50.90
2022-08-29T22:54:37.185Z,51.08
2022-08-29T22:56:42.159Z,50.94
2022-08-29T22:58:44.055Z,50.98
2022-08-29T23:00:46.471Z,51.16
2022-08-29T23:02:49.448Z,51.08
2022-08-29T23:04:52.491Z,51.18
2022-08-29T23:06:54.715Z,51.35
2022-08-29T23:08:57.166Z,51.22
2022-08-29T23:11:10.918Z,51.36
2022-08-29T23:13:12.965Z,51.30
2022-08-29T23:15:18.170Z,51.35
2022-08-29T23:17:20.359Z,51.47
2022-08-29T23:19:22.257Z,52.12
2022-08-29T23:21:24.302Z,51.54
2022-08-29T23:23:26.315Z,51.69
2022-08-29T23:25:28.431Z,51.87
2022-08-29T23:27:32.124Z,52.06
2022-08-29T23:29:36.676Z,52.06
2022-08-29T23:31:43.998Z,51.85
2022-08-29T23:33:46.076Z,52.60
2022-08-29T23:35:48.174Z,51.88
2022-08-29T23:37:50.410Z,52.06
2022-08-29T23:39:52.624Z,52.19
2022-08-29T23:41:54.679Z,52.42
2022-08-29T23:43:56.797Z,52.46
2022-08-29T23:45:59.526Z,52.61
2022-08-29T23:48:01.823Z,52.45
2022-08-29T23:50:05.756Z,52.54
2022-08-29T23:52:07.703Z,52.92
2022-08-29T23:54:09.662Z,52.82
2022-08-29T23:56:14.532Z,53.06
2022-08-29T23:58:18.413Z,52.78
